Topeka, KS

2:48 AM CDT on May 07, 2015 (GMT -0500)
Berryton, KS | | Change Station
CLOSE
Current Station
Personal Weather Station
Location: Topeka, KS
Elevation: 1053 ft
Nearby Weather Stations

Elev 1053 ft 38.97 °N, 95.64 °W | Updated 7 seconds ago

Clear
Clear
68.0 °F
Feels Like 68.0 °F
N
10.3
Wind Variable Wind from South
Gusts 11.2 mph

Today
High -- | Low -- °F
--% Chance of Precip.
Yesterday
High -- | Low -- °F
Precip. -- in
6:18 AM 8:20 PM
Waning Gibbous, 89% visible
Pressure 29.77 in
Visibility 10.0 miles
Clouds Clear
Dew Point 58 °F
Humidity 71%
Rainfall 0.00 in
Snow Depth Not available.
UV 0 out of 12
Pollen 4.10 out of 12
Air Quality Not available.
Flu Activity Sporadic
METAR KFOE 070653Z AUTO 17015G22KT 10SM CLR 21/14 A2979 RMK AO2 PK WND 16026/0601 SLP080 T02110139

More Conditions Fewer Conditions

Pressure 29.77 in
Visibility 10.0 miles
Clouds Clear
Dew Point 58 °F
Humidity 71%
Rainfall 0.00 in
Snow Depth Not available.
UV 0 out of 12
Pollen 4.10 out of 12
Air Quality Not available.
Flu Activity Sporadic
METAR KFOE 070653Z AUTO 17015G22KT 10SM CLR 21/14 A2979 RMK AO2 PK WND 16026/0601 SLP080 T02110139

More Conditions Fewer Conditions

10-Day Weather Forecast

Almanac

Astronomy

May. 07, 2015 Rise Set
Actual Time
Civil Twilight
Nautical Twilight
Astronomical Twilight
Moon
Length of Visible Light
Length of Day
Tomorrow will be .
, % of the Moon is Illuminated

Today's Extremes

State Highs State Lows

Community

WunderPhotos

Upload Photos

1,819,126 photos uploaded!

WunderBlogs® & News

Nearby

Air Quality

  Air Quality AQ Index Pollutant
Not available.

Snow Depth

Station Depth Elevation

Earthquake Activity

City Distance Mag. Time & Date
Minimum magnitude displayed is 2.5.

Coastal Water Temperatures

Place Temperature

Stations

Nearby Weather Stations

Station Location Temp. Windchill Dew Point Humidity Wind Precip. Elev Updated Type